Flag for Poland

Past Weather in 53°07'56"N, 23°09'33"E, Poland — Yesterday and Last 2 Weeks

Currently: 44 °F. Quite cool. (Weather station: Bialystok, Poland). See more current weather

Past Weather in 53°07'56"N, 23°09'33"E — Graph

°F

53°07'56"N, 23°09'33"E Temperature Yesterday

Maximum temperature yesterday: 53 °F (at 1:00 pm)
Minimum temperature yesterday: 44 °F (at 7:00 am)
Average temperature yesterday: 48 °F

High & Low Weather Summary for the Past Weeks

 TemperatureHumidityPressure
High54 °F (Feb 26, 1:00 pm)100% (Feb 17, 11:00 am)30.54 "Hg (Feb 17, 11:00 am)
Low26 °F (Feb 18, 9:00 pm)59% (Feb 18, 1:00 pm)29.44 "Hg (Feb 23, 5:00 am)
Average42 °F87%30.02 "Hg
* Reported Feb 14 10:00 pm — Feb 29 10:00 pm, 53°07'56"N, 23°09'33"E. Weather by CustomWeather, © 2024

Note: Actual official high and low records may vary slightly from our data, if they occured in-between our weather recording intervals... More about our weather records

53°07'56"N, 23°09'33"E Weather History for the Previous 24 Hours

Scroll right to see more
 ConditionsComfort  
Time TempWeatherWind HumidityBarometerVisibility
10:00 pm
Thu, Feb 29
44 °FQuite cool.2 mph86%30.17 "Hg31 mi
9:00 pm44 °FQuite cool.2 mph86%30.18 "Hg28 mi
8:00 pm44 °FQuite cool.2 mph85%30.19 "Hg28 mi
7:00 pm44 °FOvercast.2 mph86%30.20 "Hg22 mi
6:00 pm43 °FOvercast.2 mph86%30.19 "Hg22 mi
5:00 pm44 °FOvercast.2 mph84%30.19 "Hg22 mi
4:00 pm44 °FOvercast.2 mph82%30.20 "Hg22 mi
3:00 pm44 °FOvercast.2 mph82%30.21 "Hg25 mi
2:00 pm44 °FOvercast.2 mph84%30.21 "Hg28 mi
1:00 pm42 °FOvercast.2 mph88%30.24 "Hg12 mi
12:00 pm42 °FLow clouds.1 mph90%30.25 "Hg11 mi
11:00 am40 °FLow clouds.1 mph94%30.26 "Hg7 mi
10:00 am39 °FFog.1 mph95%30.26 "Hg5 mi
9:00 am38 °FLow clouds.1 mph95%30.25 "Hg6 mi
8:00 am37 °FLow clouds.1 mph93%30.24 "Hg10 mi
7:00 am37 °FLow clouds.1 mph92%30.23 "Hg16 mi
6:00 am37 °FChilly.2 mph92%30.22 "Hg7 mi
5:00 am38 °FChilly.1 mph92%30.22 "Hg8 mi
4:00 am39 °FChilly.1 mph93%30.21 "Hg10 mi
3:00 am41 °FQuite cool.2 mph90%30.20 "Hg12 mi
2:00 am42 °FQuite cool.2 mph94%30.19 "Hg6 mi
1:00 am42 °FQuite cool.3 mph93%30.18 "Hg9 mi
12:00 am45 °FQuite cool.2 mph93%30.17 "Hg7 mi
11:00 pm
Wed, Feb 28
46 °FFog.1 mph95%30.14 "Hg6 mi
Weather by CustomWeather, © 2024

See weather overview